map of AGB home
AGB - Airport
Location
City:  Augsburg, Bavaria, Germany
ICAO:EDMA
IATA:AGB

Details
Type:Airport (Flugplatz, Airfield)
Use:Public/Civil
Latitude:4825'31"N (48.425158)
Longitude:1055'54"E (10.931764)
Datum:WGS 1984
Elevation:1515 ft (462 m)
Variation:3.28E (WMM2015v2 magnetic declination)
0.16 annual change
Runways:2
Longest:4199 × 98 ft (1280 × 30 m), paved

Time
Time Zone:UTC+1 (DST+2)
Local Time:

Weather
METAR:EDMA 041350Z 08008KT 9999 SCT015 M01/M03 Q1027

Related Locations
Nearby:
Farthest:CHT: 11959 mi / 19246 km
Waitangi [Tuuta], CIT, NZ

Find:

   beyond  
but within

Other Information
Maps:
NOTAMs:
Links:
Sources:

  
  • flag of Germany
  • flag of Bavaria
  • flag of Augsburg
  

Sectional Chart

Flight Planning
at skyvector.com

Satellite Image

Google Maps Satellite view

 

Copyright © 2004-2019 Karl L. Swartz. All rights reserved.
The Great Circle Mapper name and logo are trademarks of the Great Circle Mapper.
All other trademarks mentioned herein belong to their respective owners.
Please see credits for attibutions and further copyright information.

  Follow gcmap on Facebook Follow gcmap on Twitter GCmap on LinkedIn

hCard Microformat

Geo Microformat